Time;durP1;ratioP1;P1;durP2;ratioP2;P2;SDS_P1;SDS_P2;PMS_P1;PMS_P2;Temp;Humidity;BMP_temperature;BMP_pressure;BME280_temperature;BME280_humidity;BME280_pressure;Samples;Min_cycle;Max_cycle;Signal;HPM_P1;HPM_P2
2021/06/18 00:00:27;;;;;;;10.07;6.07;;;21.60;99.90;;;;;;4958006;28;20027;-88
2021/06/18 00:02:53;;;;;;;10.25;6.78;;;21.50;99.90;;;;;;4975283;28;20027;-89
2021/06/18 00:05:19;;;;;;;11.20;6.35;;;21.60;99.90;;;;;;4975005;28;20062;-89
2021/06/18 00:07:47;;;;;;;13.18;7.07;;;21.60;99.90;;;;;;4975427;28;20077;-87
2021/06/18 00:10:14;;;;;;;13.80;7.45;;;21.60;99.90;;;;;;4975319;28;20019;-89
2021/06/18 00:12:41;;;;;;;11.45;7.40;;;21.60;99.90;;;;;;4957789;28;20105;-88
2021/06/18 00:15:09;;;;;;;12.73;7.50;;;21.70;99.90;;;;;;4975214;28;20070;-86
2021/06/18 00:17:35;;;;;;;10.55;7.80;;;21.60;99.90;;;;;;4975464;28;20033;-88
2021/06/18 00:20:02;;;;;;;13.90;7.60;;;21.50;99.90;;;;;;4974947;28;20023;-88
2021/06/18 00:22:28;;;;;;;11.52;7.75;;;21.50;99.90;;;;;;4974801;28;20030;-76
2021/06/18 00:24:57;;;;;;;11.88;8.20;;;21.60;99.90;;;;;;4974947;28;20394;-82
2021/06/18 00:27:23;;;;;;;12.32;7.60;;;21.60;99.90;;;;;;4975401;28;20070;-76
2021/06/18 00:29:49;;;;;;;11.52;7.13;;;21.60;99.90;;;;;;4957715;28;20138;-88
2021/06/18 00:32:15;;;;;;;14.88;7.10;;;21.70;99.90;;;;;;4974986;28;20027;-89
2021/06/18 00:34:41;;;;;;;9.35;6.35;;;21.70;99.90;;;;;;4975094;28;20397;-87
2021/06/18 00:37:07;;;;;;;11.05;6.57;;;21.70;99.90;;;;;;4974941;28;20027;-89
2021/06/18 00:39:34;;;;;;;13.85;7.35;;;21.60;99.90;;;;;;4975058;28;20023;-88
2021/06/18 00:42:00;;;;;;;11.18;6.85;;;21.50;99.90;;;;;;4974988;28;20106;-76
2021/06/18 00:44:26;;;;;;;11.13;6.60;;;21.50;99.90;;;;;;4975042;28;20023;-88
2021/06/18 00:46:53;;;;;;;10.65;7.10;;;21.50;99.90;;;;;;4957618;28;20481;-81
2021/06/18 00:49:21;;;;;;;9.57;6.35;;;21.30;99.90;;;;;;4957559;28;20045;-82
2021/06/18 00:51:48;;;;;;;8.88;6.40;;;21.30;99.90;;;;;;4974990;28;20106;-82
2021/06/18 00:54:27;;;;;;;12.35;6.60;;;21.40;99.90;;;;;;4975260;28;20019;-78
2021/06/18 00:57:01;;;;;;;10.55;6.60;;;21.40;99.90;;;;;;4978303;28;20034;-79
2021/06/18 00:59:28;;;;;;;9.97;6.90;;;21.40;99.90;;;;;;4978669;28;20492;-88
2021/06/18 01:01:54;;;;;;;11.95;7.22;;;21.30;99.90;;;;;;4961150;28;20051;-88
2021/06/18 01:04:26;;;;;;;10.93;7.00;;;21.30;99.90;;;;;;4978251;28;20389;-87
2021/06/18 01:07:14;;;;;;;11.90;7.25;;;21.20;99.90;;;;;;4961054;28;20446;-89
2021/06/18 01:10:11;;;;;;;9.13;7.10;;;21.20;99.90;;;;;;4978772;28;20059;-84
2021/06/18 01:12:48;;;;;;;12.18;6.60;;;21.00;99.90;;;;;;4978055;28;20060;-89
2021/06/18 01:15:47;;;;;;;12.65;7.05;;;20.80;99.90;;;;;;4960778;28;20385;-89
2021/06/18 01:18:17;;;;;;;11.15;7.18;;;20.60;99.90;;;;;;4956408;28;20129;-89
2021/06/18 01:21:10;;;;;;;11.50;6.53;;;20.60;99.90;;;;;;4960616;28;20023;-88
2021/06/18 01:23:39;;;;;;;10.55;7.07;;;20.50;99.90;;;;;;4960605;28;20126;-89
2021/06/18 01:26:25;;;;;;;19.35;14.20;;;20.50;99.90;;;;;;4960300;28;20018;-88
2021/06/18 01:28:52;;;;;;;23.52;18.73;;;20.50;99.90;;;;;;4978053;28;20110;-88
2021/06/18 01:31:22;;;;;;;21.15;16.83;;;20.60;99.90;;;;;;4960371;28;20108;-78
2021/06/18 01:33:55;;;;;;;11.45;7.82;;;20.70;99.90;;;;;;4977848;28;20377;-88
2021/06/18 01:36:22;;;;;;;11.20;6.90;;;20.60;99.90;;;;;;4977784;28;20038;-78
2021/06/18 01:38:50;;;;;;;11.38;6.13;;;20.50;99.90;;;;;;4978161;28;20023;-77
2021/06/18 01:41:21;;;;;;;9.02;5.85;;;20.30;99.90;;;;;;4960272;28;20109;-81
2021/06/18 01:43:48;;;;;;;9.82;6.63;;;20.20;99.90;;;;;;4977932;28;20037;-88
2021/06/18 01:46:18;;;;;;;10.00;6.38;;;19.90;99.90;;;;;;4960191;28;20077;-76
2021/06/18 01:48:50;;;;;;;10.25;6.40;;;20.00;99.90;;;;;;4960329;28;20057;-87
2021/06/18 01:51:18;;;;;;;12.98;6.68;;;19.90;99.90;;;;;;4960145;28;20030;-83
2021/06/18 01:53:48;;;;;;;11.43;6.43;;;19.90;99.90;;;;;;4978187;28;20023;-88
2021/06/18 01:56:17;;;;;;;10.07;6.57;;;20.00;99.90;;;;;;4977280;28;20061;-87
2021/06/18 01:58:46;;;;;;;10.75;6.70;;;19.90;99.90;;;;;;4977492;28;20023;-87
2021/06/18 02:01:17;;;;;;;11.15;6.78;;;19.90;99.90;;;;;;4960146;28;20080;-88
2021/06/18 02:03:45;;;;;;;9.20;6.35;;;19.90;99.90;;;;;;4977139;28;20027;-89
2021/06/18 02:06:13;;;;;;;10.30;6.70;;;20.00;99.90;;;;;;4976403;28;20050;-87
2021/06/18 02:08:40;;;;;;;10.25;6.45;;;20.10;99.90;;;;;;4977294;28;20469;-77
2021/06/18 02:11:06;;;;;;;9.73;5.43;;;20.10;99.90;;;;;;4977142;28;20019;-87
2021/06/18 02:13:34;;;;;;;9.27;5.97;;;20.30;99.90;;;;;;4977232;28;20031;-85
2021/06/18 02:16:01;;;;;;;9.27;5.72;;;20.40;99.90;;;;;;4977083;28;20109;-86
2021/06/18 02:18:31;;;;;;;11.07;6.22;;;20.40;99.90;;;;;;4959600;28;20490;-83
2021/06/18 02:20:58;;;;;;;11.57;6.97;;;20.30;99.90;;;;;;4959701;28;20026;-87
2021/06/18 02:23:28;;;;;;;9.73;6.75;;;20.20;99.90;;;;;;4976830;28;20031;-86
2021/06/18 02:26:01;;;;;;;10.20;6.60;;;20.20;99.90;;;;;;4977035;28;20097;-88
2021/06/18 02:28:27;;;;;;;11.07;6.75;;;20.20;99.90;;;;;;4976947;28;20358;-88
2021/06/18 02:30:54;;;;;;;14.02;7.32;;;20.30;99.90;;;;;;4976900;28;20029;-88
2021/06/18 02:33:20;;;;;;;16.45;7.90;;;20.10;99.90;;;;;;4976601;28;20014;-83
2021/06/18 02:35:48;;;;;;;10.18;7.40;;;20.10;99.90;;;;;;4976737;28;20054;-77
2021/06/18 02:38:14;;;;;;;13.95;8.00;;;20.00;99.90;;;;;;4976608;28;20474;-82
2021/06/18 02:40:41;;;;;;;11.45;7.88;;;20.00;99.90;;;;;;4976970;28;20054;-87
2021/06/18 02:43:07;;;;;;;9.70;7.50;;;19.90;99.90;;;;;;4976446;28;20035;-81
2021/06/18 02:45:35;;;;;;;11.80;7.53;;;19.80;99.90;;;;;;4976380;28;20069;-86
2021/06/18 02:48:10;;;;;;;10.73;7.55;;;20.00;99.90;;;;;;4976717;28;20023;-86
2021/06/18 02:51:24;;;;;;;12.05;7.47;;;20.00;99.90;;;;;;4959744;28;20027;-87
2021/06/18 02:54:31;;;;;;;12.02;7.57;;;19.90;99.90;;;;;;4976368;28;20495;-78
2021/06/18 02:57:01;;;;;;;13.43;8.50;;;19.90;99.90;;;;;;4970597;28;20042;-86
2021/06/18 02:59:42;;;;;;;12.75;7.95;;;19.70;99.90;;;;;;4976076;28;20045;-85
2021/06/18 03:02:14;;;;;;;13.77;7.65;;;19.70;99.90;;;;;;4976173;28;20109;-78
2021/06/18 03:04:44;;;;;;;14.68;7.85;;;19.40;99.90;;;;;;4955126;28;20090;-84
2021/06/18 03:07:15;;;;;;;11.32;7.10;;;19.40;99.90;;;;;;4956746;28;20473;-87
2021/06/18 03:09:53;;;;;;;13.95;7.45;;;19.20;99.90;;;;;;4957025;28;20023;-86
2021/06/18 03:12:25;;;;;;;16.25;8.13;;;19.30;99.90;;;;;;4957270;28;20058;-76
2021/06/18 03:14:57;;;;;;;14.02;7.72;;;19.20;99.90;;;;;;4956728;28;20030;-87
2021/06/18 03:17:24;;;;;;;17.25;8.07;;;19.20;99.90;;;;;;4955838;28;20058;-86
2021/06/18 03:19:57;;;;;;;18.27;7.40;;;19.20;99.90;;;;;;4956474;28;20057;-81
2021/06/18 03:22:24;;;;;;;18.77;7.72;;;19.20;99.90;;;;;;4956535;28;20030;-78
2021/06/18 03:24:52;;;;;;;13.65;7.38;;;19.20;99.90;;;;;;4956466;28;20083;-85
2021/06/18 03:27:22;;;;;;;15.52;7.35;;;19.30;99.90;;;;;;4956807;28;20106;-86
2021/06/18 03:29:51;;;;;;;11.40;7.13;;;19.20;99.90;;;;;;4956298;28;20035;-79
2021/06/18 03:32:18;;;;;;;11.68;7.30;;;19.20;99.90;;;;;;4956190;28;20126;-84
2021/06/18 03:34:45;;;;;;;14.52;6.97;;;19.10;99.90;;;;;;4956838;28;20363;-86
2021/06/18 03:37:12;;;;;;;14.18;7.50;;;19.10;99.90;;;;;;4956283;28;20031;-86
2021/06/18 03:39:39;;;;;;;15.95;7.88;;;19.00;99.90;;;;;;4956415;28;20023;-77
2021/06/18 03:42:06;;;;;;;14.93;7.80;;;18.80;99.90;;;;;;4954953;29;20023;-86
2021/06/18 03:44:32;;;;;;;14.77;8.25;;;18.90;99.90;;;;;;4956380;28;20347;-86
2021/06/18 03:46:59;;;;;;;15.18;8.18;;;18.90;99.90;;;;;;4956137;28;20434;-78
2021/06/18 03:49:27;;;;;;;8.88;7.13;;;19.00;99.90;;;;;;4956136;28;20020;-86
2021/06/18 03:51:55;;;;;;;15.40;8.18;;;19.10;99.90;;;;;;4956124;28;20031;-83
2021/06/18 03:54:22;;;;;;;12.48;7.90;;;19.20;99.90;;;;;;4956054;28;20062;-77
2021/06/18 03:56:49;;;;;;;17.73;8.30;;;19.30;99.90;;;;;;4954764;28;20082;-77
2021/06/18 03:59:17;;;;;;;13.20;7.78;;;19.40;99.90;;;;;;4956123;28;20023;-86
2021/06/18 04:01:45;;;;;;;13.73;8.50;;;19.60;99.90;;;;;;4954617;28;20023;-86
2021/06/18 04:04:12;;;;;;;13.60;7.88;;;19.70;99.90;;;;;;4956910;28;20110;-87
2021/06/18 04:06:39;;;;;;;11.40;8.10;;;19.70;99.90;;;;;;4957866;28;20081;-81
2021/06/18 04:09:05;;;;;;;13.73;7.95;;;19.80;99.90;;;;;;4975010;28;20066;-87
2021/06/18 04:11:33;;;;;;;14.30;7.45;;;19.80;99.90;;;;;;4975153;28;20051;-87
2021/06/18 04:14:00;;;;;;;15.27;7.00;;;20.00;99.90;;;;;;4975371;28;20081;-87
2021/06/18 04:16:26;;;;;;;12.52;7.80;;;20.20;99.90;;;;;;4957775;28;20027;-87
2021/06/18 04:18:54;;;;;;;10.88;7.90;;;20.40;99.90;;;;;;4975289;28;20023;-87
2021/06/18 04:21:22;;;;;;;9.30;7.00;;;20.40;99.90;;;;;;4975165;28;20496;-85
2021/06/18 04:23:49;;;;;;;8.65;6.85;;;20.50;99.90;;;;;;4957546;28;20030;-79
2021/06/18 04:26:15;;;;;;;11.88;7.22;;;20.70;99.90;;;;;;4975075;28;20030;-79
2021/06/18 04:28:44;;;;;;;12.07;7.05;;;20.80;99.90;;;;;;4958780;28;20034;-85
2021/06/18 04:31:10;;;;;;;11.35;7.05;;;20.80;99.90;;;;;;4979083;28;20042;-86
2021/06/18 04:33:36;;;;;;;9.73;7.28;;;21.00;99.90;;;;;;4978964;28;20057;-86
2021/06/18 04:36:03;;;;;;;12.30;6.78;;;21.10;99.90;;;;;;4978807;28;20359;-86
2021/06/18 04:38:29;;;;;;;11.63;7.82;;;21.10;99.90;;;;;;4979108;28;20035;-76
2021/06/18 04:40:55;;;;;;;14.63;7.63;;;21.20;99.90;;;;;;4961253;28;20135;-86
2021/06/18 04:43:21;;;;;;;12.05;7.85;;;21.30;99.90;;;;;;4978725;28;20027;-86
2021/06/18 04:45:47;;;;;;;9.73;6.78;;;21.10;99.90;;;;;;4978675;28;20019;-87
2021/06/18 04:48:14;;;;;;;11.70;7.07;;;21.30;99.90;;;;;;4978984;28;20419;-86
2021/06/18 04:50:40;;;;;;;10.15;6.60;;;21.40;99.90;;;;;;4978681;28;20473;-87
2021/06/18 04:53:10;;;;;;;10.38;7.20;;;21.50;99.90;;;;;;4961097;28;20015;-87
2021/06/18 04:55:42;;;;;;;10.10;6.80;;;21.60;99.90;;;;;;4978650;28;20034;-86
2021/06/18 04:58:08;;;;;;;13.65;6.88;;;21.60;99.90;;;;;;4961136;28;20030;-78
2021/06/18 05:00:35;;;;;;;10.15;6.57;;;21.70;99.90;;;;;;4978536;28;20023;-86
2021/06/18 05:03:01;;;;;;;8.75;6.80;;;21.70;99.90;;;;;;4978231;28;20085;-87
2021/06/18 05:05:30;;;;;;;10.02;6.70;;;21.60;99.90;;;;;;4977889;28;20202;-86
2021/06/18 05:07:56;;;;;;;10.43;6.55;;;21.40;99.90;;;;;;4961208;28;20076;-79
2021/06/18 05:10:25;;;;;;;8.57;6.13;;;21.60;99.90;;;;;;4978275;28;20027;-78
2021/06/18 05:12:52;;;;;;;8.25;6.18;;;21.70;99.90;;;;;;4978206;28;20019;-85
2021/06/18 05:15:19;;;;;;;9.93;7.15;;;21.80;99.90;;;;;;4960682;28;20030;-78
2021/06/18 05:17:45;;;;;;;8.55;6.18;;;21.60;99.90;;;;;;4978249;28;20026;-87
2021/06/18 05:20:12;;;;;;;8.50;6.30;;;21.60;99.90;;;;;;4960578;28;20030;-87
2021/06/18 05:22:39;;;;;;;9.93;7.50;;;21.70;99.90;;;;;;4960464;28;20035;-84
2021/06/18 05:25:07;;;;;;;9.93;6.72;;;21.80;99.90;;;;;;4960355;28;20037;-79
2021/06/18 05:27:33;;;;;;;10.88;6.57;;;21.80;99.90;;;;;;4977741;28;20555;-85
2021/06/18 05:29:59;;;;;;;10.52;6.18;;;21.90;99.90;;;;;;4977823;28;20033;-77
2021/06/18 05:32:25;;;;;;;10.25;7.10;;;21.90;99.90;;;;;;4977774;28;20481;-85
2021/06/18 05:34:51;;;;;;;10.25;6.88;;;22.00;99.90;;;;;;4977530;28;20031;-85
2021/06/18 05:37:17;;;;;;;11.63;6.75;;;22.10;99.90;;;;;;4977923;28;20026;-76
2021/06/18 05:39:44;;;;;;;9.88;6.78;;;22.20;99.90;;;;;;4959802;28;20073;-86
2021/06/18 05:42:10;;;;;;;8.15;6.60;;;22.30;99.90;;;;;;4977468;28;20023;-85
2021/06/18 05:44:37;;;;;;;9.93;6.97;;;22.50;99.90;;;;;;4959886;28;20026;-86
2021/06/18 05:47:03;;;;;;;9.52;6.43;;;22.40;99.90;;;;;;4960282;28;20019;-86
2021/06/18 05:49:30;;;;;;;10.30;6.10;;;;;;;;;;4977482;28;20030;-85
2021/06/18 05:51:56;;;;;;;10.43;5.78;;;22.60;99.90;;;;;;4959976;28;20109;-75
2021/06/18 05:54:22;;;;;;;11.63;6.18;;;22.80;99.90;;;;;;4977415;28;20153;-84
2021/06/18 05:56:48;;;;;;;7.43;5.72;;;22.90;99.90;;;;;;4959699;28;20027;-77
2021/06/18 05:59:14;;;;;;;10.93;5.90;;;23.00;99.90;;;;;;4977455;28;20035;-84
2021/06/18 06:01:40;;;;;;;9.55;5.55;;;23.20;99.90;;;;;;4976939;28;20029;-82
2021/06/18 06:04:06;;;;;;;8.70;5.80;;;23.40;99.90;;;;;;4976590;28;20031;-86
2021/06/18 06:06:32;;;;;;;10.15;6.10;;;23.50;99.90;;;;;;4977124;28;20050;-81
2021/06/18 06:08:58;;;;;;;11.25;5.75;;;23.50;99.90;;;;;;4977350;28;20027;-80
2021/06/18 06:11:25;;;;;;;8.35;5.80;;;23.50;99.90;;;;;;4977276;28;20030;-87
2021/06/18 06:13:58;;;;;;;8.00;6.00;;;23.50;99.90;;;;;;4977038;28;20512;-86
2021/06/18 06:16:25;;;;;;;8.38;5.80;;;23.60;99.90;;;;;;4976885;28;20061;-86
2021/06/18 06:18:50;;;;;;;9.50;5.78;;;23.70;99.90;;;;;;4976695;28;20039;-78
2021/06/18 06:21:18;;;;;;;8.93;5.70;;;23.70;99.80;;;;;;4959086;28;20026;-76
2021/06/18 06:23:44;;;;;;;9.32;6.10;;;23.80;99.90;;;;;;4959290;28;20030;-83
2021/06/18 06:26:10;;;;;;;12.38;6.05;;;24.00;99.90;;;;;;4976479;28;20409;-78
2021/06/18 06:28:36;;;;;;;8.43;5.93;;;24.10;99.90;;;;;;4976550;28;20022;-85
2021/06/18 06:31:03;;;;;;;7.40;6.03;;;24.10;99.80;;;;;;4976625;28;20477;-86
2021/06/18 06:33:29;;;;;;;10.80;6.10;;;24.20;99.60;;;;;;4976391;28;20019;-76
2021/06/18 06:35:55;;;;;;;8.90;5.70;;;24.40;99.90;;;;;;4975944;28;20026;-82
2021/06/18 06:38:22;;;;;;;10.35;7.00;;;24.70;99.80;;;;;;4958969;28;20103;-82
2021/06/18 06:40:49;;;;;;;9.82;6.32;;;24.60;99.90;;;;;;4976289;28;20019;-77
2021/06/18 06:43:15;;;;;;;11.88;6.40;;;24.80;99.20;;;;;;4959563;28;20381;-82
2021/06/18 06:45:41;;;;;;;8.25;5.90;;;24.90;99.00;;;;;;4994886;28;20106;-81
2021/06/18 06:48:08;;;;;;;7.82;6.45;;;25.10;98.70;;;;;;4995227;28;20056;-80
2021/06/18 06:50:34;;;;;;;11.15;6.95;;;25.20;99.10;;;;;;4978114;28;20105;-78
2021/06/18 06:53:00;;;;;;;9.43;7.05;;;25.10;99.10;;;;;;4995543;28;20132;-75
2021/06/18 06:55:25;;;;;;;13.90;6.13;;;25.10;98.70;;;;;;4994964;28;20496;-79
2021/06/18 06:57:52;;;;;;;8.85;5.88;;;25.20;98.30;;;;;;4977730;28;20095;-84
2021/06/18 07:00:18;;;;;;;14.38;6.10;;;25.30;98.40;;;;;;4995370;28;20109;-79
2021/06/18 07:02:44;;;;;;;7.15;5.50;;;25.40;98.20;;;;;;4994899;28;20101;-76
2021/06/18 07:05:11;;;;;;;9.20;6.20;;;25.30;98.00;;;;;;4994770;28;20125;-76
2021/06/18 07:07:37;;;;;;;7.68;5.97;;;25.30;98.30;;;;;;4994755;28;20019;-79
2021/06/18 07:10:04;;;;;;;12.52;6.63;;;25.10;99.00;;;;;;4994856;28;20056;-76
2021/06/18 07:12:30;;;;;;;9.07;6.50;;;25.10;98.30;;;;;;4994969;28;20441;-76
2021/06/18 07:14:56;;;;;;;11.60;6.82;;;25.30;98.50;;;;;;4994805;28;20101;-76
2021/06/18 07:17:25;;;;;;;9.15;6.20;;;25.50;98.60;;;;;;4977252;28;20048;-74
2021/06/18 07:19:56;;;;;;;11.52;6.45;;;25.70;98.40;;;;;;4994787;28;20018;-81
2021/06/18 07:22:23;;;;;;;8.57;6.32;;;26.10;99.90;;;;;;4994751;28;20113;-80
2021/06/18 07:24:49;;;;;;;9.30;6.43;;;26.20;97.80;;;;;;4977242;28;20114;-75
2021/06/18 07:27:16;;;;;;;12.02;6.97;;;26.30;97.80;;;;;;4976993;28;20023;-79
2021/06/18 07:29:43;;;;;;;10.52;5.70;;;26.30;97.70;;;;;;4977182;28;20481;-77
2021/06/18 07:32:09;;;;;;;8.30;5.93;;;26.40;98.20;;;;;;4994990;28;20018;-78
2021/06/18 07:34:36;;;;;;;9.50;5.65;;;26.20;97.20;;;;;;4994531;28;20023;-79
2021/06/18 07:37:03;;;;;;;10.63;6.03;;;26.30;97.30;;;;;;4994684;28;20400;-81
2021/06/18 07:39:28;;;;;;;10.20;6.07;;;26.30;97.40;;;;;;4994523;28;20110;-76
2021/06/18 07:41:54;;;;;;;8.20;5.78;;;26.50;97.00;;;;;;4994590;28;20097;-85
2021/06/18 07:44:20;;;;;;;11.73;6.05;;;26.80;96.40;;;;;;4994310;28;20045;-74
2021/06/18 07:46:47;;;;;;;9.85;5.90;;;27.00;95.90;;;;;;4994579;28;20022;-77
2021/06/18 07:49:13;;;;;;;12.27;6.60;;;27.00;95.50;;;;;;4994663;28;20047;-83
2021/06/18 07:51:39;;;;;;;10.02;6.10;;;26.90;96.00;;;;;;4994347;28;20084;-82
2021/06/18 07:54:06;;;;;;;9.70;5.97;;;27.20;96.50;;;;;;4994254;28;20023;-76
2021/06/18 07:56:33;;;;;;;13.18;6.50;;;27.50;95.40;;;;;;4994290;28;20055;-76
2021/06/18 07:59:00;;;;;;;13.73;6.20;;;27.80;97.50;;;;;;4976679;28;20372;-78
2021/06/18 08:01:26;;;;;;;10.52;5.55;;;27.70;95.30;;;;;;4994512;28;20565;-88
2021/06/18 08:03:53;;;;;;;10.48;5.88;;;27.90;95.50;;;;;;4992735;28;20026;-79
2021/06/18 08:06:19;;;;;;;12.48;5.93;;;28.20;95.50;;;;;;4976630;28;20497;-78
2021/06/18 08:08:46;;;;;;;9.82;6.38;;;28.30;94.40;;;;;;4994256;28;20046;-81
2021/06/18 08:11:12;;;;;;;7.15;5.60;;;28.30;94.20;;;;;;4992861;28;20429;-81
2021/06/18 08:13:39;;;;;;;8.88;5.28;;;28.20;93.60;;;;;;4994129;28;20023;-76
2021/06/18 08:16:06;;;;;;;9.15;5.70;;;28.60;94.50;;;;;;4976587;28;20022;-81
2021/06/18 08:18:35;;;;;;;8.93;4.47;;;28.50;93.50;;;;;;4994151;28;20372;-78
2021/06/18 08:21:02;;;;;;;11.32;5.65;;;29.00;94.70;;;;;;4993916;28;20023;-79
2021/06/18 08:23:28;;;;;;;10.60;5.00;;;29.00;93.70;;;;;;4994421;28;20042;-77
2021/06/18 08:25:54;;;;;;;9.68;5.03;;;29.10;93.40;;;;;;4993985;28;20476;-81
2021/06/18 08:28:20;;;;;;;11.57;5.10;;;29.40;94.80;;;;;;4992754;28;20021;-75
2021/06/18 08:30:47;;;;;;;8.30;4.85;;;29.50;91.80;;;;;;4993342;28;20019;-77
2021/06/18 08:33:13;;;;;;;8.63;5.20;;;29.40;91.80;;;;;;4975668;28;20014;-81
2021/06/18 08:35:39;;;;;;;10.68;5.20;;;29.20;92.20;;;;;;4975802;28;20026;-75
2021/06/18 08:38:05;;;;;;;7.20;4.90;;;29.50;92.20;;;;;;4994040;28;20023;-75
2021/06/18 08:40:33;;;;;;;8.10;4.65;;;29.70;91.60;;;;;;4993997;28;20121;-78
2021/06/18 08:43:01;;;;;;;8.88;5.35;;;30.10;94.60;;;;;;4994094;28;20037;-73
2021/06/18 08:45:31;;;;;;;9.95;4.93;;;30.10;91.10;;;;;;4976440;28;20116;-78
2021/06/18 08:47:57;;;;;;;7.72;5.07;;;30.10;91.90;;;;;;4993833;28;20072;-80
2021/06/18 08:50:23;;;;;;;6.35;4.57;;;30.00;91.40;;;;;;4994078;28;20031;-76
2021/06/18 08:52:54;;;;;;;7.15;4.47;;;30.20;91.50;;;;;;4993891;28;20551;-76
2021/06/18 08:55:23;;;;;;;8.45;4.03;;;30.40;92.10;;;;;;4993850;28;20396;-79
2021/06/18 08:58:00;;;;;;;7.53;4.00;;;30.60;90.10;;;;;;4993780;28;20085;-76
2021/06/18 09:00:27;;;;;;;5.75;4.35;;;30.80;87.90;;;;;;4976214;28;20492;-75
2021/06/18 09:02:55;;;;;;;7.22;3.72;;;31.10;88.20;;;;;;4993400;28;20026;-75
2021/06/18 09:05:22;;;;;;;68.43;7.88;;;30.90;87.40;;;;;;4993667;28;20043;-75
2021/06/18 09:07:55;;;;;;;5.53;4.07;;;30.80;87.60;;;;;;4993821;28;20133;-76
2021/06/18 09:10:28;;;;;;;7.10;3.88;;;31.20;87.80;;;;;;4993820;28;20030;-82
2021/06/18 09:13:34;;;;;;;5.10;3.58;;;31.20;86.80;;;;;;4976304;28;20141;-76
2021/06/18 09:16:00;;;;;;;5.38;3.95;;;31.30;87.10;;;;;;4995246;28;20106;-75
2021/06/18 09:18:39;;;;;;;8.45;4.18;;;31.50;87.50;;;;;;4979700;28;20030;-74
2021/06/18 09:21:05;;;;;;;6.13;4.05;;;31.40;84.90;;;;;;4979508;28;20106;-81
2021/06/18 09:23:35;;;;;;;8.05;4.40;;;31.80;83.90;;;;;;4996893;28;20504;-78
2021/06/18 09:26:18;;;;;;;6.93;3.60;;;32.00;85.50;;;;;;4979344;28;20088;-78
2021/06/18 09:29:07;;;;;;;9.07;4.05;;;32.20;84.00;;;;;;4997725;28;20030;-79
2021/06/18 09:31:41;;;;;;;33.55;5.35;;;32.10;83.90;;;;;;4997302;28;20488;-84
2021/06/18 09:34:08;;;;;;;6.38;3.80;;;32.40;85.20;;;;;;4997241;28;20026;-75
2021/06/18 09:36:36;;;;;;;6.60;3.63;;;32.50;82.40;;;;;;4997039;28;20101;-85
2021/06/18 09:39:06;;;;;;;5.55;3.70;;;32.60;84.70;;;;;;4997189;28;20027;-86
2021/06/18 09:41:43;;;;;;;7.90;3.85;;;32.60;83.20;;;;;;4997042;28;20089;-83
2021/06/18 09:44:18;;;;;;;5.47;3.83;;;32.60;78.20;;;;;;4997036;28;20022;-76
2021/06/18 09:46:55;;;;;;;4.82;3.40;;;32.70;81.60;;;;;;4996680;28;20072;-75
2021/06/18 09:49:41;;;;;;;4.00;3.30;;;32.60;79.30;;;;;;4996926;28;20069;-75
2021/06/18 09:52:16;;;;;;;7.28;3.50;;;32.40;82.40;;;;;;4996510;28;20021;-80
2021/06/18 09:54:49;;;;;;;5.82;3.42;;;32.90;81.50;;;;;;4996959;28;20022;-85
2021/06/18 09:57:17;;;;;;;5.00;3.13;;;33.10;79.80;;;;;;4979210;28;20065;-80
2021/06/18 10:00:05;;;;;;;5.47;3.38;;;33.10;80.40;;;;;;4996765;28;20033;-77
2021/06/18 10:02:45;;;;;;;13.68;3.50;;;32.70;74.80;;;;;;4979167;28;20054;-86
2021/06/18 10:05:36;;;;;;;7.15;3.53;;;33.20;80.80;;;;;;4975373;28;20054;-81
2021/06/18 10:08:03;;;;;;;4.85;3.60;;;33.30;78.20;;;;;;4977022;28;20030;-79
2021/06/18 10:10:33;;;;;;;5.63;3.72;;;33.40;79.80;;;;;;4977000;28;20110;-75
2021/06/18 10:13:00;;;;;;;4.38;3.50;;;33.00;76.50;;;;;;4976907;28;20027;-77
2021/06/18 10:15:31;;;;;;;9.30;3.50;;;33.10;80.60;;;;;;4975519;28;20081;-79
2021/06/18 10:17:58;;;;;;;5.22;3.50;;;33.30;76.70;;;;;;4977162;28;20023;-74
2021/06/18 10:20:31;;;;;;;9.18;3.38;;;32.90;75.00;;;;;;4976534;28;20588;-75
2021/06/18 10:22:59;;;;;;;5.20;3.50;;;32.90;79.90;;;;;;4976387;28;20026;-75
2021/06/18 10:25:35;;;;;;;8.27;3.85;;;33.00;77.80;;;;;;4976137;28;20033;-75
2021/06/18 10:28:09;;;;;;;13.68;4.00;;;33.00;76.80;;;;;;4974604;28;20031;-74
2021/06/18 10:30:44;;;;;;;3.72;2.97;;;33.10;79.00;;;;;;4975316;28;20034;-82
2021/06/18 10:33:26;;;;;;;4.97;3.30;;;33.50;77.50;;;;;;4976623;28;20102;-80
2021/06/18 10:36:03;;;;;;;4.68;3.28;;;33.80;75.90;;;;;;4975094;28;20023;-74
2021/06/18 10:38:36;;;;;;;6.72;3.10;;;33.40;77.90;;;;;;4975296;28;20034;-84
2021/06/18 10:41:25;;;;;;;5.32;2.97;;;33.20;76.60;;;;;;4991246;28;20027;-85
2021/06/18 10:44:00;;;;;;;6.20;3.20;;;32.70;75.60;;;;;;4976794;28;20055;-75
2021/06/18 10:46:33;;;;;;;5.60;3.13;;;32.70;72.30;;;;;;4975034;28;20084;-74
2021/06/18 10:49:07;;;;;;;4.60;2.90;;;33.00;76.20;;;;;;4976128;28;20023;-74
2021/06/18 10:51:39;;;;;;;7.88;2.90;;;32.90;72.50;;;;;;4975862;28;20022;-75
2021/06/18 10:54:11;;;;;;;5.45;3.35;;;33.10;75.00;;;;;;4976083;28;20106;-75
2021/06/18 10:56:47;;;;;;;26.88;4.18;;;33.10;78.40;;;;;;4974283;28;20031;-75
2021/06/18 10:59:31;;;;;;;6.22;3.33;;;33.10;77.00;;;;;;4975868;28;20422;-75
2021/06/18 11:01:59;;;;;;;5.68;3.22;;;33.20;76.80;;;;;;4974379;28;20031;-83
2021/06/18 11:04:44;;;;;;;4.35;3.10;;;33.50;76.40;;;;;;4979666;28;20116;-75
2021/06/18 11:07:27;;;;;;;5.05;3.10;;;33.60;74.40;;;;;;4994815;28;20383;-72
2021/06/18 11:10:00;;;;;;;5.57;3.75;;;33.90;73.30;;;;;;4994884;28;20034;-81
2021/06/18 11:12:27;;;;;;;;;;;33.80;76.60;;;;;;4977554;28;20022;-77
2021/06/18 11:15:07;;;;;;;7.32;3.50;;;33.50;72.40;;;;;;4993525;28;19950;-80
2021/06/18 11:17:44;;;;;;;8.07;3.63;;;33.00;75.10;;;;;;4977248;28;20092;-75
2021/06/18 11:20:18;;;;;;;4.10;3.40;;;32.60;75.20;;;;;;4994700;28;20031;-75
2021/06/18 11:22:55;;;;;;;5.95;3.50;;;32.80;76.90;;;;;;4977136;28;20035;-76
2021/06/18 11:25:36;;;;;;;4.80;3.38;;;33.10;73.90;;;;;;4994596;28;20027;-82
2021/06/18 11:28:21;;;;;;;4.53;3.53;;;33.60;77.20;;;;;;4976969;28;20050;-75
2021/06/18 11:30:56;;;;;;;4.72;3.33;;;33.70;73.10;;;;;;4994581;28;20033;-81
2021/06/18 11:33:46;;;;;;;5.82;3.40;;;34.10;74.70;;;;;;4977176;28;20121;-84
2021/06/18 11:36:17;;;;;;;6.10;3.20;;;34.20;70.30;;;;;;4994602;28;20036;-77
2021/06/18 11:38:45;;;;;;;4.03;3.30;;;34.30;74.30;;;;;;4993421;28;20027;-76
2021/06/18 11:41:12;;;;;;;5.18;3.30;;;34.20;75.10;;;;;;4994316;28;20380;-76
2021/06/18 11:43:42;;;;;;;5.22;3.15;;;33.60;68.70;;;;;;4994171;28;20034;-75
2021/06/18 11:46:09;;;;;;;4.97;2.95;;;33.50;72.40;;;;;;4994122;28;20023;-76
2021/06/18 11:48:35;;;;;;;8.40;3.20;;;33.20;74.60;;;;;;4994271;28;20496;-76
2021/06/18 11:51:02;;;;;;;7.15;3.00;;;33.10;72.40;;;;;;4976643;28;20026;-76
2021/06/18 11:53:39;;;;;;;5.88;3.40;;;32.90;71.50;;;;;;4994059;28;20022;-75
2021/06/18 11:56:06;;;;;;;6.20;3.10;;;32.70;71.20;;;;;;4994368;28;20030;-76
2021/06/18 11:58:33;;;;;;;4.28;3.30;;;32.80;70.90;;;;;;4994432;28;20481;-82
2021/06/18 12:01:13;;;;;;;4.47;3.00;;;32.90;73.70;;;;;;4994126;28;20027;-76
2021/06/18 12:03:40;;;;;;;3.97;3.20;;;33.30;74.40;;;;;;4994041;28;20034;-75
2021/06/18 12:06:19;;;;;;;4.45;3.08;;;33.30;71.30;;;;;;4992955;28;20057;-76
2021/06/18 12:09:15;;;;;;;4.35;3.10;;;33.10;73.00;;;;;;4976844;28;20031;-76
2021/06/18 12:12:00;;;;;;;4.20;3.17;;;33.00;74.80;;;;;;4994008;28;20033;-80
2021/06/18 12:14:38;;;;;;;4.43;3.17;;;32.60;69.30;;;;;;4994202;28;20101;-82
2021/06/18 12:17:04;;;;;;;5.22;3.30;;;32.60;75.20;;;;;;4994201;28;20081;-82
2021/06/18 12:19:38;;;;;;;4.03;2.95;;;32.70;74.00;;;;;;4994748;28;20033;-78
2021/06/18 12:22:30;;;;;;;4.88;3.33;;;32.70;72.00;;;;;;4994628;28;20109;-83
2021/06/18 12:24:58;;;;;;;3.95;3.28;;;32.40;71.10;;;;;;4970383;28;20046;-83
2021/06/18 12:27:32;;;;;;;4.65;3.33;;;32.40;74.70;;;;;;4994386;28;20018;-83
2021/06/18 12:30:07;;;;;;;5.72;3.22;;;32.40;74.70;;;;;;4994121;28;20026;-83
2021/06/18 12:32:36;;;;;;;11.95;9.45;;;32.60;76.00;;;;;;4976777;28;20077;-76
2021/06/18 12:35:07;;;;;;;6.32;3.67;;;32.50;72.20;;;;;;4993579;28;20037;-72
2021/06/18 12:37:39;;;;;;;6.78;3.88;;;32.50;75.00;;;;;;4993939;28;20476;-77
2021/06/18 12:40:13;;;;;;;7.78;3.75;;;32.50;76.40;;;;;;4994166;28;20038;-78
2021/06/18 12:42:51;;;;;;;4.93;3.40;;;32.50;79.40;;;;;;4994200;28;20022;-72
2021/06/18 12:45:23;;;;;;;5.70;3.58;;;32.70;73.20;;;;;;4976766;28;20034;-78
2021/06/18 12:48:09;;;;;;;12.57;4.15;;;33.00;77.10;;;;;;4993802;28;20026;-71
2021/06/18 12:50:52;;;;;;;7.18;3.50;;;33.00;74.90;;;;;;4996294;28;20489;-76
2021/06/18 12:53:30;;;;;;;5.80;3.33;;;33.20;72.20;;;;;;4980393;28;20551;-77
2021/06/18 12:56:08;;;;;;;7.93;4.10;;;33.50;74.30;;;;;;4980376;28;20072;-77
2021/06/18 12:58:35;;;;;;;5.47;3.45;;;33.80;72.60;;;;;;4997949;28;20019;-76